sensor_id;sensor_type;location;lat;lon;timestamp;temperature;humidity
8152;DHT22;4117;53.622;9.958;2023-04-29T00:00:50;8.60;15.80
8152;DHT22;4117;53.622;9.958;2023-04-29T00:03:17;8.60;15.80
8152;DHT22;4117;53.622;9.958;2023-04-29T00:05:44;8.60;15.60
8152;DHT22;4117;53.622;9.958;2023-04-29T00:08:11;8.70;14.90
8152;DHT22;4117;53.622;9.958;2023-04-29T00:10:38;8.60;14.00
8152;DHT22;4117;53.622;9.958;2023-04-29T00:13:05;8.60;14.40
8152;DHT22;4117;53.622;9.958;2023-04-29T00:15:32;8.60;15.20
8152;DHT22;4117;53.622;9.958;2023-04-29T00:18:00;8.50;15.80
8152;DHT22;4117;53.622;9.958;2023-04-29T00:20:27;8.50;15.30
8152;DHT22;4117;53.622;9.958;2023-04-29T00:22:54;8.50;15.80
8152;DHT22;4117;53.622;9.958;2023-04-29T00:25:21;8.50;15.80
8152;DHT22;4117;53.622;9.958;2023-04-29T00:27:48;8.50;15.80
8152;DHT22;4117;53.622;9.958;2023-04-29T00:30:15;8.50;15.80
8152;DHT22;4117;53.622;9.958;2023-04-29T00:32:42;8.50;15.40
8152;DHT22;4117;53.622;9.958;2023-04-29T00:35:10;8.50;15.70
8152;DHT22;4117;53.622;9.958;2023-04-29T00:37:38;8.50;15.10
8152;DHT22;4117;53.622;9.958;2023-04-29T00:40:06;8.40;15.70
8152;DHT22;4117;53.622;9.958;2023-04-29T00:42:33;8.40;15.80
8152;DHT22;4117;53.622;9.958;2023-04-29T00:45:01;8.40;15.50
8152;DHT22;4117;53.622;9.958;2023-04-29T00:47:28;8.40;15.40
8152;DHT22;4117;53.622;9.958;2023-04-29T00:49:55;8.40;15.60
8152;DHT22;4117;53.622;9.958;2023-04-29T00:52:23;8.40;15.60
8152;DHT22;4117;53.622;9.958;2023-04-29T00:54:51;8.40;14.50
8152;DHT22;4117;53.622;9.958;2023-04-29T00:57:19;8.40;14.90
8152;DHT22;4117;53.622;9.958;2023-04-29T00:59:46;8.40;14.80
8152;DHT22;4117;53.622;9.958;2023-04-29T01:02:14;8.40;12.50
8152;DHT22;4117;53.622;9.958;2023-04-29T01:04:42;8.40;12.60
8152;DHT22;4117;53.622;9.958;2023-04-29T01:07:13;8.40;12.40
8152;DHT22;4117;53.622;9.958;2023-04-29T01:09:52;8.30;11.90
8152;DHT22;4117;53.622;9.958;2023-04-29T01:12:27;8.30;14.00
8152;DHT22;4117;53.622;9.958;2023-04-29T01:15:03;8.30;14.40
8152;DHT22;4117;53.622;9.958;2023-04-29T01:17:35;8.30;14.30
8152;DHT22;4117;53.622;9.958;2023-04-29T01:20:06;8.30;13.60
8152;DHT22;4117;53.622;9.958;2023-04-29T01:22:33;8.30;13.30
8152;DHT22;4117;53.622;9.958;2023-04-29T01:25:02;8.30;12.70
8152;DHT22;4117;53.622;9.958;2023-04-29T01:27:33;8.30;11.80
8152;DHT22;4117;53.622;9.958;2023-04-29T01:30:08;8.40;11.60
8152;DHT22;4117;53.622;9.958;2023-04-29T01:32:46;8.30;12.00
8152;DHT22;4117;53.622;9.958;2023-04-29T01:35:24;8.30;11.20
8152;DHT22;4117;53.622;9.958;2023-04-29T01:38:00;8.30;11.40
8152;DHT22;4117;53.622;9.958;2023-04-29T01:40:39;8.30;12.00
8152;DHT22;4117;53.622;9.958;2023-04-29T01:43:10;8.30;12.40
8152;DHT22;4117;53.622;9.958;2023-04-29T01:45:38;8.30;9.10
8152;DHT22;4117;53.622;9.958;2023-04-29T01:48:07;8.30;10.90
8152;DHT22;4117;53.622;9.958;2023-04-29T01:50:34;8.30;11.20
8152;DHT22;4117;53.622;9.958;2023-04-29T01:53:01;8.30;10.30
8152;DHT22;4117;53.622;9.958;2023-04-29T01:55:28;8.20;10.80
8152;DHT22;4117;53.622;9.958;2023-04-29T01:57:56;8.30;11.00
8152;DHT22;4117;53.622;9.958;2023-04-29T02:02:58;8.30;11.50
8152;DHT22;4117;53.622;9.958;2023-04-29T02:05:25;8.30;11.70
8152;DHT22;4117;53.622;9.958;2023-04-29T02:07:56;8.20;10.20
8152;DHT22;4117;53.622;9.958;2023-04-29T02:10:23;8.20;10.90
8152;DHT22;4117;53.622;9.958;2023-04-29T02:12:50;8.20;12.50
8152;DHT22;4117;53.622;9.958;2023-04-29T02:15:18;8.20;10.70
8152;DHT22;4117;53.622;9.958;2023-04-29T02:17:45;8.20;11.80
8152;DHT22;4117;53.622;9.958;2023-04-29T02:20:12;8.20;12.60
8152;DHT22;4117;53.622;9.958;2023-04-29T02:22:39;8.10;11.40
8152;DHT22;4117;53.622;9.958;2023-04-29T02:25:07;8.10;13.20
8152;DHT22;4117;53.622;9.958;2023-04-29T02:27:34;8.10;12.50
8152;DHT22;4117;53.622;9.958;2023-04-29T02:30:01;8.10;13.50
8152;DHT22;4117;53.622;9.958;2023-04-29T02:32:30;8.10;15.00
8152;DHT22;4117;53.622;9.958;2023-04-29T02:34:57;8.10;13.40
8152;DHT22;4117;53.622;9.958;2023-04-29T02:37:24;8.10;13.50
8152;DHT22;4117;53.622;9.958;2023-04-29T02:39:51;8.10;14.30
8152;DHT22;4117;53.622;9.958;2023-04-29T02:42:18;8.10;14.30
8152;DHT22;4117;53.622;9.958;2023-04-29T02:44:46;8.00;13.50
8152;DHT22;4117;53.622;9.958;2023-04-29T02:47:12;8.00;14.70
8152;DHT22;4117;53.622;9.958;2023-04-29T02:49:41;8.00;15.40
8152;DHT22;4117;53.622;9.958;2023-04-29T02:52:08;8.00;14.70
8152;DHT22;4117;53.622;9.958;2023-04-29T02:54:35;8.10;15.50
8152;DHT22;4117;53.622;9.958;2023-04-29T02:57:02;8.00;14.70
8152;DHT22;4117;53.622;9.958;2023-04-29T02:59:30;8.00;15.40
8152;DHT22;4117;53.622;9.958;2023-04-29T03:01:58;8.00;15.40
8152;DHT22;4117;53.622;9.958;2023-04-29T03:04:34;8.00;14.70
8152;DHT22;4117;53.622;9.958;2023-04-29T03:07:08;8.00;15.40
8152;DHT22;4117;53.622;9.958;2023-04-29T03:09:35;8.00;15.00
8152;DHT22;4117;53.622;9.958;2023-04-29T03:12:09;8.00;15.40
8152;DHT22;4117;53.622;9.958;2023-04-29T03:14:36;7.90;15.40
8152;DHT22;4117;53.622;9.958;2023-04-29T03:17:03;8.00;15.30
8152;DHT22;4117;53.622;9.958;2023-04-29T03:19:30;7.90;15.40
8152;DHT22;4117;53.622;9.958;2023-04-29T03:21:58;8.00;15.40
8152;DHT22;4117;53.622;9.958;2023-04-29T03:24:27;8.00;13.40
8152;DHT22;4117;53.622;9.958;2023-04-29T03:26:54;8.00;15.40
8152;DHT22;4117;53.622;9.958;2023-04-29T03:29:21;8.00;15.20
8152;DHT22;4117;53.622;9.958;2023-04-29T03:31:50;7.90;15.30
8152;DHT22;4117;53.622;9.958;2023-04-29T03:34:22;7.90;15.30
8152;DHT22;4117;53.622;9.958;2023-04-29T03:36:49;7.90;15.40
8152;DHT22;4117;53.622;9.958;2023-04-29T03:39:23;7.90;15.40
8152;DHT22;4117;53.622;9.958;2023-04-29T03:41:54;7.90;15.40
8152;DHT22;4117;53.622;9.958;2023-04-29T03:44:21;7.90;15.40
8152;DHT22;4117;53.622;9.958;2023-04-29T03:46:55;7.90;15.40
8152;DHT22;4117;53.622;9.958;2023-04-29T03:49:25;7.90;15.40
8152;DHT22;4117;53.622;9.958;2023-04-29T03:51:55;7.90;15.40
8152;DHT22;4117;53.622;9.958;2023-04-29T03:54:29;7.90;15.20
8152;DHT22;4117;53.622;9.958;2023-04-29T03:57:01;7.80;15.30
8152;DHT22;4117;53.622;9.958;2023-04-29T03:59:29;7.80;15.30
8152;DHT22;4117;53.622;9.958;2023-04-29T04:01:56;7.80;15.20
8152;DHT22;4117;53.622;9.958;2023-04-29T04:04:32;7.80;15.30
8152;DHT22;4117;53.622;9.958;2023-04-29T04:07:02;7.70;15.30
8152;DHT22;4117;53.622;9.958;2023-04-29T04:09:30;7.80;15.30
8152;DHT22;4117;53.622;9.958;2023-04-29T04:11:58;7.70;15.00
8152;DHT22;4117;53.622;9.958;2023-04-29T04:14:27;7.70;15.30
8152;DHT22;4117;53.622;9.958;2023-04-29T04:16:57;7.70;15.20
8152;DHT22;4117;53.622;9.958;2023-04-29T04:19:25;7.70;15.30
8152;DHT22;4117;53.622;9.958;2023-04-29T04:21:59;7.70;15.30
8152;DHT22;4117;53.622;9.958;2023-04-29T04:24:32;7.70;15.30
8152;DHT22;4117;53.622;9.958;2023-04-29T04:27:02;7.70;15.80
8152;DHT22;4117;53.622;9.958;2023-04-29T04:29:32;7.70;15.30
8152;DHT22;4117;53.622;9.958;2023-04-29T04:32:00;7.70;15.30
8152;DHT22;4117;53.622;9.958;2023-04-29T04:34:36;7.70;15.80
8152;DHT22;4117;53.622;9.958;2023-04-29T04:37:18;7.70;17.10
8152;DHT22;4117;53.622;9.958;2023-04-29T04:39:54;7.70;16.70
8152;DHT22;4117;53.622;9.958;2023-04-29T04:42:23;7.70;16.70
8152;DHT22;4117;53.622;9.958;2023-04-29T04:45:09;7.80;19.10
8152;DHT22;4117;53.622;9.958;2023-04-29T06:05:55;8.40;9.30
8152;DHT22;4117;53.622;9.958;2023-04-29T06:08:23;8.40;6.10
8152;DHT22;4117;53.622;9.958;2023-04-29T06:16:01;8.50;5.00
8152;DHT22;4117;53.622;9.958;2023-04-29T06:18:28;8.50;5.00
8152;DHT22;4117;53.622;9.958;2023-04-29T06:20:56;8.50;5.00
8152;DHT22;4117;53.622;9.958;2023-04-29T06:23:23;8.50;3.60
8152;DHT22;4117;53.622;9.958;2023-04-29T06:25:50;8.60;5.10
8152;DHT22;4117;53.622;9.958;2023-04-29T06:28:17;8.70;5.10
8152;DHT22;4117;53.622;9.958;2023-04-29T06:30:46;8.70;2.60
8152;DHT22;4117;53.622;9.958;2023-04-29T06:33:13;8.70;1.00
8152;DHT22;4117;53.622;9.958;2023-04-29T06:35:40;8.70;1.00
8152;DHT22;4117;53.622;9.958;2023-04-29T06:38:08;8.80;1.00
8152;DHT22;4117;53.622;9.958;2023-04-29T06:40:36;8.90;1.00
8152;DHT22;4117;53.622;9.958;2023-04-29T06:43:03;8.90;1.00
8152;DHT22;4117;53.622;9.958;2023-04-29T06:45:31;9.00;1.00
8152;DHT22;4117;53.622;9.958;2023-04-29T06:47:59;9.00;1.00
8152;DHT22;4117;53.622;9.958;2023-04-29T06:50:30;9.20;1.00
8152;DHT22;4117;53.622;9.958;2023-04-29T06:52:58;9.20;1.00
8152;DHT22;4117;53.622;9.958;2023-04-29T06:55:31;9.30;1.00
8152;DHT22;4117;53.622;9.958;2023-04-29T06:57:58;9.40;1.00
8152;DHT22;4117;53.622;9.958;2023-04-29T07:00:25;9.60;1.00
8152;DHT22;4117;53.622;9.958;2023-04-29T07:02:52;9.80;1.00
8152;DHT22;4117;53.622;9.958;2023-04-29T07:05:20;9.80;1.00
8152;DHT22;4117;53.622;9.958;2023-04-29T07:07:47;10.10;1.00
8152;DHT22;4117;53.622;9.958;2023-04-29T07:10:18;10.30;1.00
8152;DHT22;4117;53.622;9.958;2023-04-29T07:12:47;10.40;1.00
8152;DHT22;4117;53.622;9.958;2023-04-29T07:15:14;10.60;1.00
8152;DHT22;4117;53.622;9.958;2023-04-29T07:17:41;10.90;1.00
8152;DHT22;4117;53.622;9.958;2023-04-29T07:20:09;11.30;1.00
8152;DHT22;4117;53.622;9.958;2023-04-29T07:22:42;11.00;1.00
8152;DHT22;4117;53.622;9.958;2023-04-29T07:25:12;11.10;1.00
8152;DHT22;4117;53.622;9.958;2023-04-29T07:27:44;11.30;1.00
8152;DHT22;4117;53.622;9.958;2023-04-29T07:30:13;11.40;1.00
8152;DHT22;4117;53.622;9.958;2023-04-29T07:32:41;11.70;1.00
8152;DHT22;4117;53.622;9.958;2023-04-29T07:35:08;11.30;1.00
8152;DHT22;4117;53.622;9.958;2023-04-29T07:37:35;11.40;1.00
8152;DHT22;4117;53.622;9.958;2023-04-29T07:40:02;11.40;1.00
8152;DHT22;4117;53.622;9.958;2023-04-29T07:42:29;11.60;1.00
8152;DHT22;4117;53.622;9.958;2023-04-29T07:44:56;11.60;1.00
8152;DHT22;4117;53.622;9.958;2023-04-29T07:47:24;11.50;1.00
8152;DHT22;4117;53.622;9.958;2023-04-29T07:49:51;11.60;1.00
8152;DHT22;4117;53.622;9.958;2023-04-29T07:52:18;11.60;1.00
8152;DHT22;4117;53.622;9.958;2023-04-29T07:54:45;11.50;1.00
8152;DHT22;4117;53.622;9.958;2023-04-29T07:57:14;11.60;1.00
8152;DHT22;4117;53.622;9.958;2023-04-29T07:59:41;11.70;1.00
8152;DHT22;4117;53.622;9.958;2023-04-29T08:02:09;11.50;1.00
8152;DHT22;4117;53.622;9.958;2023-04-29T08:04:42;11.30;1.00
8152;DHT22;4117;53.622;9.958;2023-04-29T08:07:11;11.30;1.00
8152;DHT22;4117;53.622;9.958;2023-04-29T08:09:39;11.30;1.00
8152;DHT22;4117;53.622;9.958;2023-04-29T08:12:06;11.20;1.00
8152;DHT22;4117;53.622;9.958;2023-04-29T08:14:33;11.10;1.00
8152;DHT22;4117;53.622;9.958;2023-04-29T08:16:59;11.20;1.00
8152;DHT22;4117;53.622;9.958;2023-04-29T08:19:26;11.20;1.00
8152;DHT22;4117;53.622;9.958;2023-04-29T08:21:55;11.10;1.00
8152;DHT22;4117;53.622;9.958;2023-04-29T08:24:22;11.10;1.00
8152;DHT22;4117;53.622;9.958;2023-04-29T08:26:49;11.10;1.00
8152;DHT22;4117;53.622;9.958;2023-04-29T08:29:17;10.90;1.00
8152;DHT22;4117;53.622;9.958;2023-04-29T08:31:45;11.00;1.00
8152;DHT22;4117;53.622;9.958;2023-04-29T08:34:12;11.00;1.00
8152;DHT22;4117;53.622;9.958;2023-04-29T08:36:39;11.00;1.00
8152;DHT22;4117;53.622;9.958;2023-04-29T08:39:07;11.00;1.00
8152;DHT22;4117;53.622;9.958;2023-04-29T08:41:35;11.00;1.00
8152;DHT22;4117;53.622;9.958;2023-04-29T08:44:03;11.00;1.00
8152;DHT22;4117;53.622;9.958;2023-04-29T08:46:30;11.10;1.00
8152;DHT22;4117;53.622;9.958;2023-04-29T08:49:02;11.10;1.00
8152;DHT22;4117;53.622;9.958;2023-04-29T08:51:29;11.10;1.00
8152;DHT22;4117;53.622;9.958;2023-04-29T08:53:59;10.90;1.00
8152;DHT22;4117;53.622;9.958;2023-04-29T08:56:29;11.10;1.00
8152;DHT22;4117;53.622;9.958;2023-04-29T08:58:57;11.10;1.00
8152;DHT22;4117;53.622;9.958;2023-04-29T09:01:26;11.10;1.00
8152;DHT22;4117;53.622;9.958;2023-04-29T09:04:02;11.20;1.00
8152;DHT22;4117;53.622;9.958;2023-04-29T09:06:30;11.20;1.00
8152;DHT22;4117;53.622;9.958;2023-04-29T09:08:58;11.10;1.00
8152;DHT22;4117;53.622;9.958;2023-04-29T09:11:27;11.10;1.00
8152;DHT22;4117;53.622;9.958;2023-04-29T09:13:58;11.20;1.00
8152;DHT22;4117;53.622;9.958;2023-04-29T09:16:26;11.20;1.00
8152;DHT22;4117;53.622;9.958;2023-04-29T09:18:53;11.30;1.00
8152;DHT22;4117;53.622;9.958;2023-04-29T09:21:23;11.30;1.00
8152;DHT22;4117;53.622;9.958;2023-04-29T09:23:51;11.40;1.00
8152;DHT22;4117;53.622;9.958;2023-04-29T09:26:19;11.40;1.00
8152;DHT22;4117;53.622;9.958;2023-04-29T09:29:05;11.40;1.00
8152;DHT22;4117;53.622;9.958;2023-04-29T09:31:34;11.50;1.00
8152;DHT22;4117;53.622;9.958;2023-04-29T09:34:03;11.50;1.00
8152;DHT22;4117;53.622;9.958;2023-04-29T09:36:44;11.50;1.00
8152;DHT22;4117;53.622;9.958;2023-04-29T09:39:12;11.60;1.00
8152;DHT22;4117;53.622;9.958;2023-04-29T09:41:41;11.60;1.00
8152;DHT22;4117;53.622;9.958;2023-04-29T09:44:11;11.80;1.00
8152;DHT22;4117;53.622;9.958;2023-04-29T09:46:37;11.80;1.00
8152;DHT22;4117;53.622;9.958;2023-04-29T09:49:22;11.90;1.00
8152;DHT22;4117;53.622;9.958;2023-04-29T09:51:53;11.90;1.00
8152;DHT22;4117;53.622;9.958;2023-04-29T09:54:21;11.90;1.00
8152;DHT22;4117;53.622;9.958;2023-04-29T09:56:49;11.90;1.00
8152;DHT22;4117;53.622;9.958;2023-04-29T09:59:18;11.90;1.00
8152;DHT22;4117;53.622;9.958;2023-04-29T10:01:47;11.90;1.00
8152;DHT22;4117;53.622;9.958;2023-04-29T10:04:16;12.00;1.00
8152;DHT22;4117;53.622;9.958;2023-04-29T10:06:44;12.00;1.00
8152;DHT22;4117;53.622;9.958;2023-04-29T10:09:13;11.90;1.00
8152;DHT22;4117;53.622;9.958;2023-04-29T10:11:44;11.90;1.00
8152;DHT22;4117;53.622;9.958;2023-04-29T10:14:12;12.00;1.00
8152;DHT22;4117;53.622;9.958;2023-04-29T10:16:46;12.00;1.00
8152;DHT22;4117;53.622;9.958;2023-04-29T10:19:18;12.10;1.00
8152;DHT22;4117;53.622;9.958;2023-04-29T10:21:48;12.00;1.00
8152;DHT22;4117;53.622;9.958;2023-04-29T10:24:17;12.10;1.00
8152;DHT22;4117;53.622;9.958;2023-04-29T10:26:46;12.10;1.00
8152;DHT22;4117;53.622;9.958;2023-04-29T10:29:13;12.10;1.00
8152;DHT22;4117;53.622;9.958;2023-04-29T10:31:42;12.20;1.00
8152;DHT22;4117;53.622;9.958;2023-04-29T10:34:12;12.30;1.00
8152;DHT22;4117;53.622;9.958;2023-04-29T10:36:42;12.30;1.00
8152;DHT22;4117;53.622;9.958;2023-04-29T10:39:18;12.30;1.00
8152;DHT22;4117;53.622;9.958;2023-04-29T10:41:47;12.40;1.00
8152;DHT22;4117;53.622;9.958;2023-04-29T10:44:15;12.30;1.00
8152;DHT22;4117;53.622;9.958;2023-04-29T10:46:42;12.50;1.00
8152;DHT22;4117;53.622;9.958;2023-04-29T10:49:10;12.50;1.00
8152;DHT22;4117;53.622;9.958;2023-04-29T10:51:41;12.60;1.00
8152;DHT22;4117;53.622;9.958;2023-04-29T10:54:11;12.60;1.00
8152;DHT22;4117;53.622;9.958;2023-04-29T10:56:42;12.70;1.00
8152;DHT22;4117;53.622;9.958;2023-04-29T10:59:10;12.60;1.00
8152;DHT22;4117;53.622;9.958;2023-04-29T11:01:48;12.70;1.00
8152;DHT22;4117;53.622;9.958;2023-04-29T11:04:17;12.70;1.00
8152;DHT22;4117;53.622;9.958;2023-04-29T11:06:47;12.80;1.00
8152;DHT22;4117;53.622;9.958;2023-04-29T11:09:18;12.80;1.00
8152;DHT22;4117;53.622;9.958;2023-04-29T11:11:56;12.80;1.00
8152;DHT22;4117;53.622;9.958;2023-04-29T11:14:26;12.80;1.00
8152;DHT22;4117;53.622;9.958;2023-04-29T11:16:56;12.80;1.00
8152;DHT22;4117;53.622;9.958;2023-04-29T11:19:25;12.90;1.00
8152;DHT22;4117;53.622;9.958;2023-04-29T11:24:56;13.00;1.00
8152;DHT22;4117;53.622;9.958;2023-04-29T11:27:26;12.80;1.00
8152;DHT22;4117;53.622;9.958;2023-04-29T11:29:57;12.70;1.00
8152;DHT22;4117;53.622;9.958;2023-04-29T11:32:24;12.80;1.00
8152;DHT22;4117;53.622;9.958;2023-04-29T11:34:51;13.00;1.00
8152;DHT22;4117;53.622;9.958;2023-04-29T11:37:21;13.20;1.00
8152;DHT22;4117;53.622;9.958;2023-04-29T11:39:49;13.10;1.00
8152;DHT22;4117;53.622;9.958;2023-04-29T11:42:20;13.20;1.00
8152;DHT22;4117;53.622;9.958;2023-04-29T11:44:50;13.40;1.00
8152;DHT22;4117;53.622;9.958;2023-04-29T11:47:18;13.40;1.00
8152;DHT22;4117;53.622;9.958;2023-04-29T11:49:45;13.30;1.00
8152;DHT22;4117;53.622;9.958;2023-04-29T11:52:13;13.50;1.00
8152;DHT22;4117;53.622;9.958;2023-04-29T11:54:41;13.80;1.00
8152;DHT22;4117;53.622;9.958;2023-04-29T11:57:09;13.90;1.00
8152;DHT22;4117;53.622;9.958;2023-04-29T11:59:36;14.00;1.00
8152;DHT22;4117;53.622;9.958;2023-04-29T12:02:03;14.00;1.00
8152;DHT22;4117;53.622;9.958;2023-04-29T12:04:30;14.00;1.00
8152;DHT22;4117;53.622;9.958;2023-04-29T12:06:57;14.20;1.00
8152;DHT22;4117;53.622;9.958;2023-04-29T12:09:24;14.00;1.00
8152;DHT22;4117;53.622;9.958;2023-04-29T12:11:52;13.90;1.00
8152;DHT22;4117;53.622;9.958;2023-04-29T12:14:19;13.90;1.00
8152;DHT22;4117;53.622;9.958;2023-04-29T12:16:46;14.00;1.00
8152;DHT22;4117;53.622;9.958;2023-04-29T12:19:14;14.20;1.00
8152;DHT22;4117;53.622;9.958;2023-04-29T12:21:47;14.20;1.00
8152;DHT22;4117;53.622;9.958;2023-04-29T12:24:14;14.30;1.00
8152;DHT22;4117;53.622;9.958;2023-04-29T12:26:44;14.40;1.00
8152;DHT22;4117;53.622;9.958;2023-04-29T12:29:13;14.50;1.00
8152;DHT22;4117;53.622;9.958;2023-04-29T12:31:40;14.50;1.00
8152;DHT22;4117;53.622;9.958;2023-04-29T12:34:08;14.50;1.00
8152;DHT22;4117;53.622;9.958;2023-04-29T12:36:34;14.50;1.00
8152;DHT22;4117;53.622;9.958;2023-04-29T12:39:04;14.40;1.00
8152;DHT22;4117;53.622;9.958;2023-04-29T12:41:36;14.40;1.00
8152;DHT22;4117;53.622;9.958;2023-04-29T12:44:04;14.40;1.00
8152;DHT22;4117;53.622;9.958;2023-04-29T12:46:35;14.40;1.00
8152;DHT22;4117;53.622;9.958;2023-04-29T12:49:02;14.50;1.00
8152;DHT22;4117;53.622;9.958;2023-04-29T12:51:29;14.30;1.00
8152;DHT22;4117;53.622;9.958;2023-04-29T12:53:58;14.20;1.00
8152;DHT22;4117;53.622;9.958;2023-04-29T12:56:25;14.30;1.00
8152;DHT22;4117;53.622;9.958;2023-04-29T12:58:52;14.30;1.00
8152;DHT22;4117;53.622;9.958;2023-04-29T13:01:19;14.40;1.00
8152;DHT22;4117;53.622;9.958;2023-04-29T13:03:47;14.50;1.00
8152;DHT22;4117;53.622;9.958;2023-04-29T13:06:16;14.60;1.00
8152;DHT22;4117;53.622;9.958;2023-04-29T13:08:44;14.50;1.00
8152;DHT22;4117;53.622;9.958;2023-04-29T13:11:11;14.30;1.00
8152;DHT22;4117;53.622;9.958;2023-04-29T13:13:38;14.40;1.00
8152;DHT22;4117;53.622;9.958;2023-04-29T13:16:06;14.40;1.00
8152;DHT22;4117;53.622;9.958;2023-04-29T13:18:34;14.40;1.00
8152;DHT22;4117;53.622;9.958;2023-04-29T13:21:03;14.30;1.00
8152;DHT22;4117;53.622;9.958;2023-04-29T13:23:30;14.40;1.00
8152;DHT22;4117;53.622;9.958;2023-04-29T13:25:56;14.60;1.00
8152;DHT22;4117;53.622;9.958;2023-04-29T13:28:23;14.60;1.00
8152;DHT22;4117;53.622;9.958;2023-04-29T13:30:50;14.40;1.00
8152;DHT22;4117;53.622;9.958;2023-04-29T13:33:17;14.50;1.00
8152;DHT22;4117;53.622;9.958;2023-04-29T13:35:45;14.50;1.00
8152;DHT22;4117;53.622;9.958;2023-04-29T13:38:13;14.50;1.00
8152;DHT22;4117;53.622;9.958;2023-04-29T13:40:40;14.50;1.00
8152;DHT22;4117;53.622;9.958;2023-04-29T13:43:07;14.60;1.00
8152;DHT22;4117;53.622;9.958;2023-04-29T13:45:34;14.50;1.00
8152;DHT22;4117;53.622;9.958;2023-04-29T13:48:01;14.70;1.00
8152;DHT22;4117;53.622;9.958;2023-04-29T13:50:28;14.80;1.00
8152;DHT22;4117;53.622;9.958;2023-04-29T13:52:54;14.90;1.00
8152;DHT22;4117;53.622;9.958;2023-04-29T13:55:23;15.00;1.00
8152;DHT22;4117;53.622;9.958;2023-04-29T13:57:50;15.10;1.00
8152;DHT22;4117;53.622;9.958;2023-04-29T14:00:17;15.30;1.00
8152;DHT22;4117;53.622;9.958;2023-04-29T14:02:45;15.30;1.00
8152;DHT22;4117;53.622;9.958;2023-04-29T14:05:12;15.00;1.00
8152;DHT22;4117;53.622;9.958;2023-04-29T14:07:39;15.00;1.00
8152;DHT22;4117;53.622;9.958;2023-04-29T14:10:06;15.20;1.00
8152;DHT22;4117;53.622;9.958;2023-04-29T14:12:35;15.30;1.00
8152;DHT22;4117;53.622;9.958;2023-04-29T14:15:02;15.40;1.00
8152;DHT22;4117;53.622;9.958;2023-04-29T14:17:29;15.60;1.00
8152;DHT22;4117;53.622;9.958;2023-04-29T14:19:56;15.60;1.00
8152;DHT22;4117;53.622;9.958;2023-04-29T14:22:23;15.50;1.00
8152;DHT22;4117;53.622;9.958;2023-04-29T14:24:51;15.60;1.00
8152;DHT22;4117;53.622;9.958;2023-04-29T14:27:19;15.60;1.00
8152;DHT22;4117;53.622;9.958;2023-04-29T14:29:48;15.60;1.00
8152;DHT22;4117;53.622;9.958;2023-04-29T14:32:16;15.40;1.00
8152;DHT22;4117;53.622;9.958;2023-04-29T14:34:43;15.40;1.00
8152;DHT22;4117;53.622;9.958;2023-04-29T14:37:10;15.40;1.00
8152;DHT22;4117;53.622;9.958;2023-04-29T14:39:37;15.50;1.00
8152;DHT22;4117;53.622;9.958;2023-04-29T14:42:04;15.30;1.00
8152;DHT22;4117;53.622;9.958;2023-04-29T14:44:31;14.90;1.00
8152;DHT22;4117;53.622;9.958;2023-04-29T14:46:59;15.00;1.00
8152;DHT22;4117;53.622;9.958;2023-04-29T14:49:26;15.10;1.00
8152;DHT22;4117;53.622;9.958;2023-04-29T14:51:53;15.00;1.00
8152;DHT22;4117;53.622;9.958;2023-04-29T14:54:20;14.70;1.00
8152;DHT22;4117;53.622;9.958;2023-04-29T14:56:47;14.60;1.00
8152;DHT22;4117;53.622;9.958;2023-04-29T14:59:14;14.50;1.00
8152;DHT22;4117;53.622;9.958;2023-04-29T15:01:41;14.80;1.00
8152;DHT22;4117;53.622;9.958;2023-04-29T15:04:09;15.00;1.00
8152;DHT22;4117;53.622;9.958;2023-04-29T15:06:37;15.40;1.00
8152;DHT22;4117;53.622;9.958;2023-04-29T15:09:04;14.90;1.00
8152;DHT22;4117;53.622;9.958;2023-04-29T15:11:32;14.50;1.00
8152;DHT22;4117;53.622;9.958;2023-04-29T15:13:59;14.30;1.00
8152;DHT22;4117;53.622;9.958;2023-04-29T15:16:26;14.20;1.00
8152;DHT22;4117;53.622;9.958;2023-04-29T15:18:53;14.10;1.00
8152;DHT22;4117;53.622;9.958;2023-04-29T15:21:22;14.00;1.00
8152;DHT22;4117;53.622;9.958;2023-04-29T15:23:49;13.90;1.00
8152;DHT22;4117;53.622;9.958;2023-04-29T15:26:16;13.80;1.00
8152;DHT22;4117;53.622;9.958;2023-04-29T15:28:43;13.60;1.00
8152;DHT22;4117;53.622;9.958;2023-04-29T15:31:11;13.70;1.00
8152;DHT22;4117;53.622;9.958;2023-04-29T15:33:38;13.80;1.00
8152;DHT22;4117;53.622;9.958;2023-04-29T15:36:06;13.70;1.00
8152;DHT22;4117;53.622;9.958;2023-04-29T15:38:34;13.90;1.00
8152;DHT22;4117;53.622;9.958;2023-04-29T15:41:01;14.00;1.00
8152;DHT22;4117;53.622;9.958;2023-04-29T15:43:29;13.60;1.00
8152;DHT22;4117;53.622;9.958;2023-04-29T15:45:57;13.70;1.00
8152;DHT22;4117;53.622;9.958;2023-04-29T15:48:24;14.00;1.00
8152;DHT22;4117;53.622;9.958;2023-04-29T15:50:51;14.10;1.00
8152;DHT22;4117;53.622;9.958;2023-04-29T15:53:19;14.10;1.00
8152;DHT22;4117;53.622;9.958;2023-04-29T15:55:47;13.90;1.00
8152;DHT22;4117;53.622;9.958;2023-04-29T15:58:14;13.50;1.00
8152;DHT22;4117;53.622;9.958;2023-04-29T16:00:41;13.40;1.00
8152;DHT22;4117;53.622;9.958;2023-04-29T16:03:08;13.20;1.00
8152;DHT22;4117;53.622;9.958;2023-04-29T16:05:34;13.50;1.00
8152;DHT22;4117;53.622;9.958;2023-04-29T16:08:02;13.60;1.00
8152;DHT22;4117;53.622;9.958;2023-04-29T16:10:29;13.70;1.00
8152;DHT22;4117;53.622;9.958;2023-04-29T16:12:57;13.70;1.00
8152;DHT22;4117;53.622;9.958;2023-04-29T16:15:25;13.60;1.00
8152;DHT22;4117;53.622;9.958;2023-04-29T16:17:52;13.50;1.00
8152;DHT22;4117;53.622;9.958;2023-04-29T16:20:19;13.40;1.00
8152;DHT22;4117;53.622;9.958;2023-04-29T16:22:46;13.30;1.00
8152;DHT22;4117;53.622;9.958;2023-04-29T16:25:13;13.70;1.00
8152;DHT22;4117;53.622;9.958;2023-04-29T16:27:40;13.60;1.00
8152;DHT22;4117;53.622;9.958;2023-04-29T16:30:09;13.60;1.00
8152;DHT22;4117;53.622;9.958;2023-04-29T16:32:36;13.50;1.00
8152;DHT22;4117;53.622;9.958;2023-04-29T16:35:06;13.40;1.00
8152;DHT22;4117;53.622;9.958;2023-04-29T16:37:33;13.50;1.00
8152;DHT22;4117;53.622;9.958;2023-04-29T16:40:00;13.40;1.00
8152;DHT22;4117;53.622;9.958;2023-04-29T16:42:27;13.30;1.00
8152;DHT22;4117;53.622;9.958;2023-04-29T16:44:54;13.20;1.00
8152;DHT22;4117;53.622;9.958;2023-04-29T16:47:22;13.20;1.00
8152;DHT22;4117;53.622;9.958;2023-04-29T16:49:49;13.10;1.00
8152;DHT22;4117;53.622;9.958;2023-04-29T16:52:18;12.80;1.00
8152;DHT22;4117;53.622;9.958;2023-04-29T16:54:45;12.90;1.00
8152;DHT22;4117;53.622;9.958;2023-04-29T16:57:12;12.90;1.00
8152;DHT22;4117;53.622;9.958;2023-04-29T16:59:39;12.70;1.00
8152;DHT22;4117;53.622;9.958;2023-04-29T17:02:06;12.90;1.00
8152;DHT22;4117;53.622;9.958;2023-04-29T17:04:34;12.60;1.00
8152;DHT22;4117;53.622;9.958;2023-04-29T17:07:01;12.60;1.00
8152;DHT22;4117;53.622;9.958;2023-04-29T17:09:30;12.60;1.00
8152;DHT22;4117;53.622;9.958;2023-04-29T17:11:57;12.40;1.00
8152;DHT22;4117;53.622;9.958;2023-04-29T17:14:24;12.20;1.00
8152;DHT22;4117;53.622;9.958;2023-04-29T17:16:51;12.30;1.00
8152;DHT22;4117;53.622;9.958;2023-04-29T17:19:18;12.20;1.00
8152;DHT22;4117;53.622;9.958;2023-04-29T17:21:46;12.30;1.00
8152;DHT22;4117;53.622;9.958;2023-04-29T17:24:13;12.10;1.00
8152;DHT22;4117;53.622;9.958;2023-04-29T17:26:40;12.10;1.00
8152;DHT22;4117;53.622;9.958;2023-04-29T17:29:07;12.10;1.00
8152;DHT22;4117;53.622;9.958;2023-04-29T17:31:36;12.10;1.00
8152;DHT22;4117;53.622;9.958;2023-04-29T17:34:10;12.00;1.00
8152;DHT22;4117;53.622;9.958;2023-04-29T17:36:44;11.90;1.00
8152;DHT22;4117;53.622;9.958;2023-04-29T17:39:13;11.80;1.00
8152;DHT22;4117;53.622;9.958;2023-04-29T17:41:39;11.60;1.00
8152;DHT22;4117;53.622;9.958;2023-04-29T17:44:07;11.60;1.00
8152;DHT22;4117;53.622;9.958;2023-04-29T17:46:34;11.50;1.00
8152;DHT22;4117;53.622;9.958;2023-04-29T17:49:01;11.30;1.00
8152;DHT22;4117;53.622;9.958;2023-04-29T17:51:28;11.30;1.00
8152;DHT22;4117;53.622;9.958;2023-04-29T17:53:57;11.10;1.00
8152;DHT22;4117;53.622;9.958;2023-04-29T17:56:26;11.20;1.00